Time;durP1;ratioP1;P1;durP2;ratioP2;P2;SDS_P1;SDS_P2;PMS_P1;PMS_P2;Temp;Humidity;BMP_temperature;BMP_pressure;BME280_temperature;BME280_humidity;BME280_pressure;Samples;Min_cycle;Max_cycle;Signal;HPM_P1;HPM_P2
2024/01/14 00:00:08;;;;;;;5.93;2.80;;;14.90;58.60;;;;;;5040650;28;20457;-79
2024/01/14 00:02:38;;;;;;;5.23;2.30;;;14.80;58.50;;;;;;5039713;28;20436;-78
2024/01/14 00:05:07;;;;;;;11.40;2.63;;;14.90;58.80;;;;;;5072240;22;20486;-77
2024/01/14 00:07:41;;;;;;;6.67;2.47;;;14.80;58.50;;;;;;5047720;28;20443;-78
2024/01/14 00:10:10;;;;;;;4.17;2.20;;;14.90;58.70;;;;;;5050027;28;20434;-78
2024/01/14 00:12:41;;;;;;;4.77;2.53;;;14.90;58.90;;;;;;5052662;28;20556;-79
2024/01/14 00:15:11;;;;;;;4.73;2.13;;;14.90;58.90;;;;;;5049028;28;20502;-79
2024/01/14 00:17:45;;;;;;;5.93;2.87;;;14.90;59.20;;;;;;5051124;28;20447;-78
2024/01/14 00:20:16;;;;;;;3.43;2.27;;;14.90;59.00;;;;;;5052274;28;20950;-78
2024/01/14 00:22:49;;;;;;;6.20;2.77;;;14.90;59.00;;;;;;5051836;28;20448;-77
2024/01/14 00:25:23;;;;;;;6.43;2.57;;;14.90;59.00;;;;;;5053172;28;20468;-78
2024/01/14 00:27:59;;;;;;;7.73;2.53;;;14.90;59.00;;;;;;5055994;28;20446;-77
2024/01/14 00:30:43;;;;;;;4.20;2.40;;;14.90;59.30;;;;;;5052194;28;21046;-78
2024/01/14 00:33:20;;;;;;;7.23;2.63;;;14.90;59.30;;;;;;5047949;28;20612;-77
2024/01/14 00:36:08;;;;;;;5.83;2.70;;;14.90;59.00;;;;;;5052453;28;20439;-77
2024/01/14 00:38:58;;;;;;;4.60;2.63;;;14.80;59.00;;;;;;5052276;28;20452;-78
2024/01/14 00:41:29;;;;;;;6.17;2.80;;;14.80;59.40;;;;;;5051929;28;20451;-79
2024/01/14 00:44:03;;;;;;;4.40;2.57;;;14.90;59.40;;;;;;5052059;28;20532;-78
2024/01/14 00:46:39;;;;;;;3.90;2.40;;;14.90;59.40;;;;;;5052018;28;20447;-78
2024/01/14 00:49:25;;;;;;;4.23;2.47;;;14.80;59.30;;;;;;5046487;28;20438;-77
2024/01/14 00:52:00;;;;;;;3.70;2.40;;;14.80;59.40;;;;;;5051640;28;20577;-76
2024/01/14 00:54:37;;;;;;;4.67;2.30;;;14.80;59.40;;;;;;5051367;28;20490;-78
2024/01/14 00:57:16;;;;;;;4.50;2.50;;;14.80;60.10;;;;;;5051640;28;20508;-78
2024/01/14 00:59:52;;;;;;;5.83;2.40;;;14.80;59.50;;;;;;5051631;28;20454;-78
2024/01/14 01:02:33;;;;;;;3.00;2.03;;;14.90;59.60;;;;;;5051257;28;20469;-77
2024/01/14 01:05:04;;;;;;;6.70;2.90;;;14.90;59.50;;;;;;5054024;28;20474;-78
2024/01/14 01:07:35;;;;;;;6.00;2.50;;;14.80;59.40;;;;;;5045053;28;20453;-78
2024/01/14 01:10:05;;;;;;;4.47;2.23;;;14.90;59.40;;;;;;5050792;28;20443;-78
2024/01/14 01:12:34;;;;;;;2.70;2.37;;;14.80;59.40;;;;;;5048649;28;20471;-77
2024/01/14 01:15:03;;;;;;;6.13;2.63;;;14.80;59.60;;;;;;5051780;28;20481;-78
2024/01/14 01:17:31;;;;;;;4.70;1.90;;;14.90;59.50;;;;;;5051770;28;20949;-77
2024/01/14 01:20:00;;;;;;;5.70;2.70;;;14.80;59.40;;;;;;5051861;28;20497;-78
2024/01/14 01:22:29;;;;;;;2.57;2.30;;;14.80;59.60;;;;;;5052360;28;20462;-78
2024/01/14 01:24:57;;;;;;;2.87;2.43;;;14.80;59.40;;;;;;5053935;28;20537;-79
2024/01/14 01:27:25;;;;;;;4.83;2.60;;;14.80;59.40;;;;;;5052727;28;20446;-79
2024/01/14 01:30:02;;;;;;;6.63;3.17;;;14.80;59.60;;;;;;5049777;28;20446;-78
2024/01/14 01:32:37;;;;;;;3.97;2.90;;;14.80;59.40;;;;;;5052474;28;20473;-80
2024/01/14 01:35:09;;;;;;;7.80;2.63;;;14.80;59.60;;;;;;5046014;28;20458;-79
2024/01/14 01:37:39;;;;;;;6.90;2.93;;;14.80;59.30;;;;;;5052893;28;20442;-78
2024/01/14 01:40:15;;;;;;;2.60;2.13;;;14.80;59.50;;;;;;5051062;28;20446;-77
2024/01/14 01:42:56;;;;;;;5.30;2.90;;;14.80;59.50;;;;;;5057210;28;20442;-79
2024/01/14 01:45:24;;;;;;;4.70;2.30;;;14.80;59.50;;;;;;5056196;28;20474;-79
2024/01/14 01:47:53;;;;;;;6.83;2.93;;;14.80;59.40;;;;;;5056602;28;20480;-79
2024/01/14 01:50:21;;;;;;;3.10;2.17;;;14.80;59.40;;;;;;5048973;28;20434;-78
2024/01/14 01:52:52;;;;;;;5.27;3.43;;;14.80;59.40;;;;;;5054005;28;20477;-79
2024/01/14 01:55:21;;;;;;;3.70;2.43;;;14.80;59.50;;;;;;5055571;28;20478;-78
2024/01/14 01:57:49;;;;;;;3.77;2.97;;;14.80;59.50;;;;;;5054933;28;20454;-78
2024/01/14 02:00:17;;;;;;;5.80;2.73;;;14.80;59.60;;;;;;5054413;28;20446;-77
2024/01/14 02:02:46;;;;;;;6.20;3.00;;;14.70;59.40;;;;;;5054615;28;20446;-77
2024/01/14 02:05:14;;;;;;;2.77;2.40;;;14.80;59.60;;;;;;5048259;28;20478;-78
2024/01/14 02:07:43;;;;;;;5.43;2.70;;;14.70;59.50;;;;;;5062053;28;20446;-78
2024/01/14 02:10:12;;;;;;;5.53;2.60;;;14.70;59.30;;;;;;5054777;28;20439;-77
2024/01/14 02:12:41;;;;;;;3.70;2.63;;;14.70;59.20;;;;;;5051997;28;20473;-77
2024/01/14 02:15:09;;;;;;;5.57;2.40;;;14.70;59.40;;;;;;5054447;28;20496;-78
2024/01/14 02:17:37;;;;;;;8.43;2.63;;;14.70;59.30;;;;;;5050404;28;20447;-78
2024/01/14 02:20:07;;;;;;;6.70;2.63;;;14.60;59.30;;;;;;5055349;28;20500;-78
2024/01/14 02:22:36;;;;;;;2.50;2.30;;;14.70;59.40;;;;;;5055146;28;20446;-76
2024/01/14 02:25:07;;;;;;;2.50;2.30;;;14.60;59.30;;;;;;5056594;28;20474;-78
2024/01/14 02:27:35;;;;;;;2.50;2.27;;;14.60;59.30;;;;;;5076212;28;20438;-78
2024/01/14 02:30:05;;;;;;;4.17;2.67;;;14.60;59.30;;;;;;5075160;28;20447;-77
2024/01/14 02:32:37;;;;;;;4.37;2.60;;;14.60;59.40;;;;;;5067740;28;20434;-78
2024/01/14 02:35:06;;;;;;;3.97;2.40;;;14.60;59.30;;;;;;5055552;28;21043;-78
2024/01/14 02:37:35;;;;;;;3.70;2.43;;;14.60;59.40;;;;;;5054358;28;20574;-78
2024/01/14 02:40:04;;;;;;;5.17;2.53;;;14.60;59.20;;;;;;5053913;28;20496;-78
2024/01/14 02:42:34;;;;;;;4.10;2.30;;;14.60;59.40;;;;;;5052277;28;20438;-77
2024/01/14 02:45:02;;;;;;;4.23;2.43;;;14.60;59.20;;;;;;5046749;28;20505;-79
2024/01/14 02:47:30;;;;;;;4.37;2.77;;;14.60;59.30;;;;;;5045683;28;20454;-79
2024/01/14 02:49:58;;;;;;;4.37;2.53;;;14.60;59.20;;;;;;5051720;28;20460;-77
2024/01/14 02:52:27;;;;;;;3.80;2.20;;;14.60;59.80;;;;;;5052796;28;20438;-79
2024/01/14 02:54:57;;;;;;;4.80;2.53;;;14.60;59.20;;;;;;5056411;28;20482;-80
2024/01/14 02:57:25;;;;;;;5.43;2.53;;;14.50;59.00;;;;;;5050572;28;20454;-79
2024/01/14 02:59:55;;;;;;;7.90;2.40;;;14.50;59.30;;;;;;5051187;28;20443;-79
2024/01/14 03:02:24;;;;;;;2.53;1.93;;;14.50;59.30;;;;;;5054660;28;20473;-79
2024/01/14 03:04:53;;;;;;;3.50;2.20;;;14.50;59.10;;;;;;5051916;28;20484;-79
2024/01/14 03:07:21;;;;;;;3.37;1.90;;;14.50;59.20;;;;;;5048891;28;20439;-79
2024/01/14 03:09:49;;;;;;;2.57;2.33;;;14.50;59.20;;;;;;5052947;28;20495;-77
2024/01/14 03:12:17;;;;;;;2.90;2.17;;;14.40;59.40;;;;;;5054609;28;20986;-78
2024/01/14 03:14:45;;;;;;;3.50;2.23;;;14.50;59.40;;;;;;5052711;28;20478;-78
2024/01/14 03:17:14;;;;;;;3.23;2.50;;;14.50;59.50;;;;;;5053020;28;20431;-78
2024/01/14 03:19:43;;;;;;;2.40;2.20;;;14.50;59.50;;;;;;5053122;28;20926;-79
2024/01/14 03:22:11;;;;;;;4.87;2.30;;;14.50;59.50;;;;;;5054261;28;20473;-80
2024/01/14 03:24:39;;;;;;;3.07;2.30;;;14.50;59.50;;;;;;5053330;28;20466;-79
2024/01/14 03:27:08;;;;;;;5.00;2.53;;;14.50;59.70;;;;;;5041928;28;20474;-80
2024/01/14 03:29:36;;;;;;;3.70;1.93;;;14.50;59.50;;;;;;5053759;28;20447;-80
2024/01/14 03:32:04;;;;;;;2.43;2.23;;;14.50;59.50;;;;;;5047958;28;20715;-78
2024/01/14 03:34:36;;;;;;;6.53;2.47;;;14.50;59.50;;;;;;5052759;28;20498;-79
2024/01/14 03:37:05;;;;;;;3.37;2.30;;;14.50;59.40;;;;;;5048803;28;20473;-79
2024/01/14 03:39:33;;;;;;;2.83;2.00;;;14.50;59.50;;;;;;5053986;28;20565;-80
2024/01/14 03:42:01;;;;;;;3.60;2.63;;;14.40;59.30;;;;;;5051847;28;20926;-78
2024/01/14 03:44:29;;;;;;;3.17;2.13;;;14.40;59.50;;;;;;5052154;28;20517;-78
2024/01/14 03:46:57;;;;;;;3.73;2.03;;;14.40;59.40;;;;;;5050912;28;20451;-79
2024/01/14 03:49:25;;;;;;;2.73;2.10;;;14.40;59.60;;;;;;5049642;28;20458;-79
2024/01/14 03:51:55;;;;;;;2.73;2.17;;;14.40;59.40;;;;;;5049949;28;20467;-79
2024/01/14 03:54:23;;;;;;;5.30;2.30;;;14.40;59.60;;;;;;5052575;28;20550;-79
2024/01/14 03:56:51;;;;;;;2.80;1.90;;;14.40;59.50;;;;;;5052120;28;20454;-79
2024/01/14 03:59:19;;;;;;;4.13;2.37;;;14.40;59.20;;;;;;5051352;28;20459;-79
2024/01/14 04:01:47;;;;;;;3.13;2.10;;;14.40;59.50;;;;;;5046625;28;20439;-79
2024/01/14 04:04:15;;;;;;;3.63;2.27;;;14.40;59.60;;;;;;5053316;28;20481;-78
2024/01/14 04:06:43;;;;;;;4.07;2.33;;;14.40;59.50;;;;;;5052377;28;20469;-79
2024/01/14 04:09:13;;;;;;;7.03;2.40;;;14.40;59.50;;;;;;5048593;28;20537;-79
2024/01/14 04:11:42;;;;;;;2.40;2.20;;;14.40;59.50;;;;;;5052877;28;20461;-79
2024/01/14 04:14:10;;;;;;;2.47;2.27;;;14.40;59.40;;;;;;5053320;28;20534;-79
2024/01/14 04:16:38;;;;;;;5.40;2.30;;;14.40;59.60;;;;;;5053018;28;20477;-79
2024/01/14 04:19:07;;;;;;;4.33;2.20;;;14.40;59.70;;;;;;5050209;28;20447;-77
2024/01/14 04:21:35;;;;;;;4.00;2.30;;;14.40;59.60;;;;;;5047893;28;20525;-80
2024/01/14 04:24:04;;;;;;;2.30;1.80;;;14.40;59.60;;;;;;5053201;28;20954;-79
2024/01/14 04:26:33;;;;;;;4.23;2.40;;;14.40;59.40;;;;;;5048748;28;20455;-78
2024/01/14 04:29:01;;;;;;;2.20;2.00;;;14.40;59.50;;;;;;5052427;28;20530;-79
2024/01/14 04:31:29;;;;;;;4.37;2.10;;;14.40;59.60;;;;;;5052490;28;20458;-79
2024/01/14 04:33:59;;;;;;;4.97;2.57;;;14.40;59.50;;;;;;5048754;28;20953;-78
2024/01/14 04:36:27;;;;;;;7.47;2.40;;;14.40;59.60;;;;;;5042691;28;20443;-78
2024/01/14 04:38:56;;;;;;;4.90;2.00;;;14.40;59.60;;;;;;5050472;28;20473;-80
2024/01/14 04:41:24;;;;;;;4.67;2.53;;;14.40;59.60;;;;;;5047409;28;20442;-79
2024/01/14 04:43:53;;;;;;;2.53;2.10;;;14.40;59.80;;;;;;5057450;28;20463;-79
2024/01/14 04:46:21;;;;;;;3.33;2.20;;;14.40;59.60;;;;;;5069584;28;20465;-80
2024/01/14 04:48:49;;;;;;;2.87;2.30;;;14.40;59.50;;;;;;5069324;28;20454;-79
2024/01/14 04:51:18;;;;;;;4.13;2.57;;;14.30;59.50;;;;;;5069717;28;20449;-79
2024/01/14 04:53:47;;;;;;;2.63;2.43;;;14.40;59.80;;;;;;5059099;28;20522;-79
2024/01/14 04:56:15;;;;;;;8.30;2.47;;;14.30;59.50;;;;;;5051054;28;20438;-80
2024/01/14 04:58:43;;;;;;;3.13;1.90;;;14.30;59.60;;;;;;5056294;28;20447;-79
2024/01/14 05:01:13;;;;;;;2.67;2.40;;;14.30;59.60;;;;;;5054060;28;20442;-78
2024/01/14 05:03:42;;;;;;;6.10;2.90;;;14.30;59.70;;;;;;5054124;28;20470;-79
2024/01/14 05:06:11;;;;;;;2.00;1.80;;;14.30;59.60;;;;;;5048259;28;20469;-78
2024/01/14 05:08:42;;;;;;;2.93;2.23;;;14.30;59.60;;;;;;5054442;28;20449;-78
2024/01/14 05:11:10;;;;;;;2.53;1.70;;;14.30;59.40;;;;;;5045522;28;20546;-79
2024/01/14 05:13:38;;;;;;;5.20;1.83;;;14.30;59.70;;;;;;5053934;28;20477;-79
2024/01/14 05:16:06;;;;;;;3.37;2.30;;;14.30;59.60;;;;;;5053115;28;20514;-79
2024/01/14 05:18:36;;;;;;;3.63;2.10;;;14.30;59.50;;;;;;5053979;28;20514;-78
2024/01/14 05:21:06;;;;;;;4.33;2.27;;;14.30;59.50;;;;;;5053890;28;20492;-79
2024/01/14 05:23:34;;;;;;;3.50;2.10;;;14.30;59.30;;;;;;5054788;28;20470;-79
2024/01/14 05:26:04;;;;;;;3.27;1.93;;;14.20;59.30;;;;;;5052123;28;20437;-79
2024/01/14 05:28:32;;;;;;;2.20;2.00;;;14.20;59.20;;;;;;5048223;28;20519;-79
2024/01/14 05:31:00;;;;;;;2.97;1.97;;;14.20;59.30;;;;;;5051969;28;20442;-79
2024/01/14 05:33:28;;;;;;;5.03;2.47;;;14.20;59.20;;;;;;5045445;28;20491;-78
2024/01/14 05:35:58;;;;;;;2.57;2.00;;;14.20;59.40;;;;;;5052921;28;20506;-78
2024/01/14 05:38:26;;;;;;;2.03;1.80;;;14.20;59.30;;;;;;5055123;28;20447;-79
2024/01/14 05:40:54;;;;;;;3.33;2.23;;;14.20;59.30;;;;;;5055383;28;20439;-79
2024/01/14 05:43:22;;;;;;;4.40;2.00;;;14.20;59.30;;;;;;5051374;28;20474;-79
2024/01/14 05:45:50;;;;;;;6.00;2.07;;;14.20;59.10;;;;;;5052190;28;20492;-77
2024/01/14 05:48:19;;;;;;;5.47;2.00;;;14.10;59.30;;;;;;5049955;28;20466;-78
2024/01/14 05:50:51;;;;;;;2.97;1.93;;;14.10;59.00;;;;;;5065986;28;20454;-78
2024/01/14 05:53:20;;;;;;;3.20;1.60;;;14.10;59.00;;;;;;5071154;28;20488;-79
2024/01/14 05:55:49;;;;;;;5.50;2.47;;;14.10;59.10;;;;;;5073438;28;20455;-79
2024/01/14 05:58:16;;;;;;;3.80;2.20;;;14.10;59.20;;;;;;5060806;28;20442;-78
2024/01/14 06:00:44;;;;;;;2.80;1.90;;;14.10;59.20;;;;;;5049149;28;20448;-78
2024/01/14 06:03:13;;;;;;;3.37;1.97;;;14.10;59.20;;;;;;5047367;28;20453;-78
2024/01/14 06:05:42;;;;;;;4.57;2.43;;;14.10;59.20;;;;;;5052265;28;20445;-78
2024/01/14 06:08:10;;;;;;;3.20;1.70;;;14.10;59.10;;;;;;5052981;28;20521;-78
2024/01/14 06:10:39;;;;;;;2.87;1.90;;;14.10;59.10;;;;;;5044615;28;20462;-78
2024/01/14 06:13:07;;;;;;;2.93;1.90;;;14.10;59.20;;;;;;5052963;28;20446;-78
2024/01/14 06:15:35;;;;;;;4.27;2.00;;;14.10;59.10;;;;;;5053003;28;20502;-78
2024/01/14 06:18:04;;;;;;;4.57;2.17;;;14.00;59.20;;;;;;5052876;28;20477;-79
2024/01/14 06:20:32;;;;;;;3.67;1.70;;;14.00;59.00;;;;;;5053140;28;20449;-78
2024/01/14 06:23:00;;;;;;;2.50;1.93;;;14.00;58.90;;;;;;5052686;28;20446;-78
2024/01/14 06:25:29;;;;;;;4.80;2.17;;;14.00;58.90;;;;;;5054346;28;20439;-78
2024/01/14 06:27:58;;;;;;;4.37;1.87;;;14.00;58.90;;;;;;5055124;28;20489;-78
2024/01/14 06:30:26;;;;;;;4.50;2.10;;;14.00;58.80;;;;;;5056409;28;20542;-78
2024/01/14 06:32:55;;;;;;;2.80;1.87;;;14.00;59.00;;;;;;5055789;28;20453;-77
2024/01/14 06:35:24;;;;;;;3.63;2.17;;;14.00;58.90;;;;;;5047236;28;21040;-78
2024/01/14 06:37:52;;;;;;;3.67;1.50;;;13.90;58.70;;;;;;5055710;28;20953;-78
2024/01/14 06:40:20;;;;;;;3.83;1.90;;;13.90;58.80;;;;;;5055977;28;20470;-78
2024/01/14 06:43:00;;;;;;;3.10;1.27;;;13.90;58.90;;;;;;5055933;28;20461;-78
2024/01/14 06:45:28;;;;;;;3.10;1.87;;;13.90;58.60;;;;;;5048275;28;20533;-78
2024/01/14 06:47:57;;;;;;;2.90;2.00;;;13.90;58.90;;;;;;5055213;28;20455;-80
2024/01/14 06:50:26;;;;;;;3.70;1.90;;;13.90;58.90;;;;;;5054327;28;20530;-79
2024/01/14 06:52:54;;;;;;;4.73;1.90;;;14.00;58.80;;;;;;5055257;28;20538;-77
2024/01/14 06:55:22;;;;;;;5.50;2.00;;;13.90;58.80;;;;;;5054403;28;20470;-77
2024/01/14 06:57:50;;;;;;;3.57;1.80;;;14.00;58.80;;;;;;5054220;28;20496;-78
2024/01/14 07:00:20;;;;;;;4.30;2.30;;;14.00;58.90;;;;;;5047685;28;20447;-77
2024/01/14 07:02:48;;;;;;;4.67;2.27;;;13.90;58.80;;;;;;5040443;28;20443;-78
2024/01/14 07:05:16;;;;;;;5.33;1.87;;;13.90;59.00;;;;;;5052631;28;20519;-78
2024/01/14 07:07:45;;;;;;;5.87;1.90;;;13.90;58.80;;;;;;5054268;28;20904;-78
2024/01/14 07:10:15;;;;;;;3.67;1.93;;;13.90;58.80;;;;;;5050369;28;20498;-78
2024/01/14 07:12:43;;;;;;;2.63;1.60;;;14.00;58.90;;;;;;5053203;28;20479;-78
2024/01/14 07:15:12;;;;;;;2.83;1.57;;;13.90;58.80;;;;;;5053584;28;20467;-78
2024/01/14 07:17:41;;;;;;;4.87;1.70;;;14.00;58.90;;;;;;5053270;28;20499;-78
2024/01/14 07:20:25;;;;;;;6.67;2.10;;;14.00;58.80;;;;;;5053323;28;20442;-77
2024/01/14 07:22:54;;;;;;;2.83;1.93;;;14.00;58.80;;;;;;5053123;28;20500;-77
2024/01/14 07:25:42;;;;;;;5.67;1.47;;;14.00;58.70;;;;;;5046926;28;20427;-77
2024/01/14 07:28:10;;;;;;;2.93;1.70;;;14.00;59.00;;;;;;5053410;28;20466;-78
2024/01/14 07:30:38;;;;;;;2.47;1.90;;;14.00;59.00;;;;;;5053404;28;20454;-77
2024/01/14 07:33:07;;;;;;;3.73;1.77;;;14.00;59.00;;;;;;5052424;28;20454;-77
2024/01/14 07:35:36;;;;;;;2.03;1.40;;;14.00;59.00;;;;;;5053580;28;20471;-77
2024/01/14 07:38:04;;;;;;;2.63;1.70;;;14.00;58.90;;;;;;5053721;28;20451;-76
2024/01/14 07:40:32;;;;;;;3.47;1.80;;;14.00;59.00;;;;;;5053264;28;20447;-77
2024/01/14 07:43:00;;;;;;;4.00;1.80;;;14.00;58.90;;;;;;5045718;28;20447;-77
2024/01/14 07:45:28;;;;;;;2.70;1.77;;;14.00;58.80;;;;;;5053071;28;20477;-78
2024/01/14 07:47:56;;;;;;;3.30;1.70;;;14.00;58.80;;;;;;5053796;28;20447;-77
2024/01/14 07:50:26;;;;;;;5.10;2.10;;;14.00;58.80;;;;;;5055103;28;20535;-79
2024/01/14 07:52:54;;;;;;;2.23;1.77;;;14.00;59.00;;;;;;5056514;28;20453;-80
2024/01/14 07:55:22;;;;;;;3.63;1.70;;;14.00;58.90;;;;;;5059262;28;20463;-78
2024/01/14 07:57:50;;;;;;;2.50;2.07;;;14.00;58.90;;;;;;5052025;28;20534;-78
2024/01/14 08:00:18;;;;;;;4.90;2.07;;;14.00;59.00;;;;;;5054633;28;20478;-77
2024/01/14 08:02:46;;;;;;;3.47;2.13;;;14.00;58.80;;;;;;5049477;28;20453;-78
2024/01/14 08:05:14;;;;;;;2.70;1.40;;;14.00;58.80;;;;;;5054210;28;20565;-78
2024/01/14 08:07:44;;;;;;;3.00;1.57;;;14.00;58.80;;;;;;5054462;28;20446;-78
2024/01/14 08:10:12;;;;;;;2.30;1.63;;;14.00;58.70;;;;;;5054778;28;20450;-78
2024/01/14 08:12:40;;;;;;;1.83;1.60;;;14.00;58.60;;;;;;5052650;28;20553;-78
2024/01/14 08:15:09;;;;;;;5.13;2.20;;;14.00;58.80;;;;;;5053874;28;20496;-78
2024/01/14 08:17:38;;;;;;;5.57;2.27;;;14.00;58.70;;;;;;5050786;28;20482;-78
2024/01/14 08:20:08;;;;;;;2.90;1.73;;;14.00;58.60;;;;;;5054875;28;20446;-78
2024/01/14 08:22:36;;;;;;;3.70;1.60;;;14.00;58.30;;;;;;5049744;28;20495;-78
2024/01/14 08:25:07;;;;;;;4.87;1.60;;;14.00;58.40;;;;;;5054695;28;20465;-78
2024/01/14 08:27:35;;;;;;;4.13;2.07;;;14.00;58.60;;;;;;5054492;28;20529;-78
2024/01/14 08:30:04;;;;;;;2.63;1.90;;;14.00;58.40;;;;;;5052767;28;20458;-79
2024/01/14 08:32:32;;;;;;;6.90;1.67;;;14.00;58.50;;;;;;5053277;28;20455;-78
2024/01/14 08:35:00;;;;;;;3.20;1.87;;;14.10;58.60;;;;;;5053410;28;20454;-78
2024/01/14 08:37:29;;;;;;;6.97;2.40;;;14.10;58.40;;;;;;5053544;28;20478;-79
2024/01/14 08:39:57;;;;;;;2.50;1.50;;;14.10;58.40;;;;;;5056780;28;20492;-78
2024/01/14 08:42:26;;;;;;;1.40;1.30;;;14.20;58.40;;;;;;5057724;28;20470;-78
2024/01/14 08:44:54;;;;;;;4.97;1.80;;;14.20;58.40;;;;;;5053454;28;20473;-77
2024/01/14 08:47:22;;;;;;;4.23;2.07;;;14.30;58.40;;;;;;5050152;28;20442;-78
2024/01/14 08:49:51;;;;;;;3.00;1.53;;;14.30;58.50;;;;;;5059569;28;20442;-79
2024/01/14 08:52:19;;;;;;;4.27;1.87;;;14.40;58.60;;;;;;5060233;28;20441;-78
2024/01/14 08:54:47;;;;;;;2.50;1.73;;;14.50;58.60;;;;;;5062244;28;20545;-79
2024/01/14 08:57:15;;;;;;;3.00;1.70;;;14.60;58.60;;;;;;5059333;28;20474;-79
2024/01/14 08:59:45;;;;;;;3.60;1.70;;;14.60;58.50;;;;;;5051835;28;20454;-79
2024/01/14 09:02:13;;;;;;;3.77;1.60;;;14.60;58.30;;;;;;5052036;28;20459;-79
2024/01/14 09:04:41;;;;;;;6.30;2.10;;;14.60;58.30;;;;;;5045151;28;20478;-78
2024/01/14 09:07:17;;;;;;;4.60;2.20;;;14.70;58.50;;;;;;5053944;28;20443;-77
2024/01/14 09:09:45;;;;;;;3.80;1.70;;;14.70;58.50;;;;;;5055446;28;20454;-79
2024/01/14 09:12:14;;;;;;;3.43;1.47;;;14.70;58.60;;;;;;5054559;28;20458;-79
2024/01/14 09:14:42;;;;;;;3.73;1.90;;;14.70;58.70;;;;;;5052506;28;20446;-79
2024/01/14 09:17:12;;;;;;;2.70;1.90;;;14.70;58.60;;;;;;5075771;28;20466;-79
2024/01/14 09:19:41;;;;;;;2.93;1.70;;;14.70;58.50;;;;;;5067070;28;20434;-79
2024/01/14 09:22:09;;;;;;;4.83;2.20;;;14.70;58.60;;;;;;5061899;28;20462;-78
2024/01/14 09:24:44;;;;;;;3.57;1.37;;;14.70;58.70;;;;;;5055217;28;20517;-78
2024/01/14 09:27:13;;;;;;;2.83;1.80;;;14.80;58.70;;;;;;5043095;28;20438;-78
2024/01/14 09:29:41;;;;;;;3.40;1.70;;;14.80;58.80;;;;;;5051099;28;20451;-78
2024/01/14 09:32:18;;;;;;;3.63;1.80;;;14.70;58.60;;;;;;5044735;28;20447;-79
2024/01/14 09:34:46;;;;;;;3.33;1.90;;;14.70;58.80;;;;;;5055695;28;20531;-79
2024/01/14 09:37:15;;;;;;;4.40;1.97;;;14.70;58.80;;;;;;5055072;28;20554;-79
2024/01/14 09:39:43;;;;;;;5.07;1.77;;;14.70;58.80;;;;;;5052078;28;20442;-79
2024/01/14 09:42:17;;;;;;;3.70;1.70;;;14.80;58.90;;;;;;5053144;28;20477;-79
2024/01/14 09:44:46;;;;;;;1.93;1.67;;;14.80;59.00;;;;;;5053208;28;20462;-79
2024/01/14 09:47:16;;;;;;;2.60;1.87;;;14.80;58.80;;;;;;5047108;28;20447;-78
2024/01/14 09:49:46;;;;;;;3.70;1.60;;;14.80;58.90;;;;;;5047367;28;20442;-77
2024/01/14 09:52:15;;;;;;;3.03;1.80;;;14.80;58.80;;;;;;5048806;28;20480;-78
2024/01/14 09:54:44;;;;;;;3.30;2.00;;;14.90;58.90;;;;;;5046909;28;20490;-78
2024/01/14 09:57:14;;;;;;;1.80;1.63;;;14.90;59.00;;;;;;5053058;28;20497;-78
2024/01/14 09:59:43;;;;;;;4.03;1.47;;;14.90;58.70;;;;;;5053877;28;20446;-79
2024/01/14 10:02:12;;;;;;;2.43;1.90;;;15.00;58.70;;;;;;5055942;28;20481;-78
2024/01/14 10:04:42;;;;;;;4.50;1.97;;;15.00;59.00;;;;;;5053700;28;20988;-78
2024/01/14 10:07:11;;;;;;;4.27;1.90;;;15.00;58.80;;;;;;5056520;28;20449;-79
2024/01/14 10:09:40;;;;;;;2.10;1.47;;;15.10;59.00;;;;;;5055789;28;20446;-80
2024/01/14 10:12:09;;;;;;;2.10;1.53;;;15.20;59.00;;;;;;5056304;28;20455;-78
2024/01/14 10:14:37;;;;;;;2.60;1.87;;;15.20;58.80;;;;;;5056984;28;20472;-78
2024/01/14 10:17:05;;;;;;;5.13;1.20;;;15.30;59.00;;;;;;5051032;28;20478;-78
2024/01/14 10:19:34;;;;;;;3.70;1.80;;;15.50;59.10;;;;;;5054347;28;20478;-78
2024/01/14 10:22:03;;;;;;;2.23;1.70;;;15.50;58.90;;;;;;5058200;28;20473;-78
2024/01/14 10:24:52;;;;;;;3.57;1.60;;;15.60;58.90;;;;;;5052865;28;20466;-78
2024/01/14 10:27:21;;;;;;;4.27;1.90;;;15.70;59.00;;;;;;5050637;28;20493;-78
2024/01/14 10:30:05;;;;;;;4.83;1.90;;;15.90;59.10;;;;;;5050475;28;20508;-78
2024/01/14 10:32:34;;;;;;;6.80;2.20;;;16.00;58.90;;;;;;5054448;28;20477;-79
2024/01/14 10:35:24;;;;;;;3.10;2.10;;;16.10;59.10;;;;;;5047475;28;20458;-78
2024/01/14 10:37:55;;;;;;;2.67;1.80;;;16.20;59.00;;;;;;5050007;28;20466;-79
2024/01/14 10:40:23;;;;;;;6.83;2.60;;;16.40;59.00;;;;;;5056644;28;20442;-80
2024/01/14 10:42:52;;;;;;;6.10;2.10;;;16.40;59.00;;;;;;5042095;28;20447;-80
2024/01/14 10:45:22;;;;;;;4.17;2.47;;;16.50;59.00;;;;;;5054501;28;20463;-79
2024/01/14 10:47:53;;;;;;;4.90;2.40;;;16.60;59.20;;;;;;5052144;28;20478;-79
2024/01/14 10:50:22;;;;;;;4.37;2.50;;;16.70;58.90;;;;;;5050817;28;20527;-79
2024/01/14 10:52:55;;;;;;;4.50;2.70;;;16.80;59.00;;;;;;5054443;28;20541;-80
2024/01/14 10:55:31;;;;;;;15.03;2.83;;;16.90;59.10;;;;;;5054312;28;20454;-77
2024/01/14 10:58:00;;;;;;;9.40;2.47;;;13.90;52.60;;;;;;5053455;28;20470;-77
2024/01/14 11:00:28;;;;;;;14.97;6.97;;;12.60;57.90;;;;;;5051916;28;20580;-76
2024/01/14 11:03:00;;;;;;;6.20;2.27;;;11.70;58.60;;;;;;5056409;28;20486;-76
2024/01/14 11:05:31;;;;;;;13.17;2.77;;;10.70;59.90;;;;;;5056557;28;20458;-76
2024/01/14 11:08:07;;;;;;;12.53;3.67;;;9.70;63.90;;;;;;5049516;28;20438;-76
2024/01/14 11:10:50;;;;;;;10.50;2.70;;;9.50;66.00;;;;;;5013171;28;20452;-76
2024/01/14 11:13:32;;;;;;;8.90;3.53;;;9.30;67.80;;;;;;5052373;28;20518;-76
2024/01/14 11:16:11;;;;;;;11.37;2.90;;;9.30;67.40;;;;;;5050397;28;20450;-77
2024/01/14 11:18:50;;;;;;;7.90;2.47;;;9.10;68.40;;;;;;5053908;28;20474;-76
2024/01/14 11:21:40;;;;;;;8.43;2.17;;;8.40;69.40;;;;;;5054714;28;20442;-77
2024/01/14 11:24:36;;;;;;;9.47;2.73;;;8.00;73.50;;;;;;5056801;28;20446;-77
2024/01/14 11:27:05;;;;;;;7.93;2.10;;;8.00;75.60;;;;;;5056546;28;20442;-77
2024/01/14 11:30:05;;;;;;;;;;;;;;;;;;;;;
2024/01/14 11:32:38;;;;;;;13.90;2.87;;;7.60;79.10;;;;;;5052116;28;20447;-76
2024/01/14 11:35:09;;;;;;;5.70;2.50;;;7.90;80.80;;;;;;5055194;28;20451;-78
2024/01/14 11:37:41;;;;;;;3.33;2.53;;;8.20;83.00;;;;;;5052567;28;20443;-77
2024/01/14 11:40:26;;;;;;;8.87;2.77;;;9.50;86.00;;;;;;5054060;28;20470;-77
2024/01/14 11:43:05;;;;;;;12.77;2.83;;;10.80;79.40;;;;;;5051670;28;20449;-77
2024/01/14 11:45:37;;;;;;;12.07;2.70;;;11.70;75.60;;;;;;5054717;28;20448;-76
2024/01/14 11:48:08;;;;;;;10.83;2.70;;;12.50;71.00;;;;;;5055607;28;20473;-76
2024/01/14 11:50:37;;;;;;;7.87;2.90;;;13.10;67.40;;;;;;5059137;28;20469;-77
2024/01/14 11:53:07;;;;;;;6.33;2.50;;;13.50;64.40;;;;;;5057486;28;20442;-74
2024/01/14 11:55:36;;;;;;;5.20;2.30;;;13.90;65.80;;;;;;5054304;28;20537;-77
2024/01/14 11:58:15;;;;;;;6.93;2.30;;;14.90;66.00;;;;;;5055569;28;20536;-76
2024/01/14 12:00:44;;;;;;;10.97;2.60;;;15.70;63.90;;;;;;5054516;28;20520;-76
2024/01/14 12:03:36;;;;;;;10.20;2.30;;;16.50;62.00;;;;;;5054920;28;20478;-78
2024/01/14 12:06:05;;;;;;;14.70;2.93;;;17.10;59.80;;;;;;5054526;28;20442;-77
2024/01/14 12:08:33;;;;;;;4.43;2.20;;;17.60;58.70;;;;;;5055906;28;20435;-78
2024/01/14 12:11:03;;;;;;;6.27;2.03;;;18.00;57.80;;;;;;5055211;28;20446;-77
2024/01/14 12:13:32;;;;;;;8.20;2.40;;;18.30;57.40;;;;;;5055384;28;20548;-79
2024/01/14 12:16:01;;;;;;;11.83;2.93;;;18.70;56.60;;;;;;5055085;28;20477;-79
2024/01/14 12:18:40;;;;;;;14.47;2.30;;;18.90;55.90;;;;;;5054551;28;20476;-78
2024/01/14 12:21:13;;;;;;;3.10;2.27;;;19.20;55.30;;;;;;5043026;28;20438;-79
2024/01/14 12:23:54;;;;;;;9.07;2.10;;;19.40;54.90;;;;;;5052967;28;20469;-77
2024/01/14 12:26:24;;;;;;;6.17;2.40;;;19.60;54.70;;;;;;5052903;28;20429;-77
2024/01/14 12:28:54;;;;;;;7.03;2.10;;;19.70;54.10;;;;;;5053944;28;20442;-78
2024/01/14 12:31:24;;;;;;;17.83;2.83;;;19.90;53.80;;;;;;5054854;28;20479;-78
2024/01/14 12:33:56;;;;;;;4.27;2.47;;;20.10;53.70;;;;;;5054821;28;20498;-79
2024/01/14 12:36:24;;;;;;;3.90;1.73;;;20.20;53.60;;;;;;5054432;28;20444;-79
2024/01/14 12:39:06;;;;;;;4.53;1.80;;;20.30;53.40;;;;;;5056179;28;20474;-79
2024/01/14 12:41:37;;;;;;;5.07;2.37;;;20.40;53.10;;;;;;5038663;28;20463;-79
2024/01/14 12:44:20;;;;;;;3.93;2.10;;;20.50;53.10;;;;;;5065798;28;20457;-79
2024/01/14 12:46:49;;;;;;;7.43;1.83;;;20.60;53.00;;;;;;5067588;28;20437;-80
2024/01/14 12:49:23;;;;;;;12.00;2.53;;;20.70;52.90;;;;;;5068016;28;20468;-81
2024/01/14 12:51:59;;;;;;;5.80;1.87;;;20.80;52.80;;;;;;5062023;28;20503;-80
2024/01/14 12:54:27;;;;;;;3.13;1.50;;;21.10;52.80;;;;;;5059319;28;20466;-79
2024/01/14 12:57:01;;;;;;;4.40;1.80;;;21.30;52.50;;;;;;5057434;28;20444;-80
2024/01/14 12:59:30;;;;;;;3.10;2.00;;;21.40;51.90;;;;;;5052951;28;20557;-80
2024/01/14 13:01:59;;;;;;;7.23;1.77;;;21.40;51.60;;;;;;5054569;28;20439;-79
2024/01/14 13:04:27;;;;;;;3.57;1.70;;;21.40;51.50;;;;;;5055441;28;20474;-81